Aérodrome :
LOGIN :

S'inscrire | Disclaimer

   EN    FR    IT 

 










Légende :    VFR   VFR Marginal   IFR   IFR Intensif   IFR Très Intensif
Visi : 
Plafond : 
>= 8 km
>= 3000ft
5 à 8 km
1000 à 3000 ft
1500m à 5 km
500 à 1000 ft
800 à 1500m
200 à 500 ft
< 800m
< 200 ft
Symboles :   Orages  Brouillard  Fortes neiges  Fortes précipitations  Vent > 20 kt
SIGMETs :   Divers  Orages  Givrage  Turbulence  Onde Orograph.  Cendres Volcan.






- Altitude de l'aérodrome : 2776 ft
- Code IATA : VLL


LEVD - Valladolid

DERNIER METAR :
  • 160700Z 16014KT 9999 SCT037 07/04 Q1001

METARs EXPIRÉS :
  • 160630Z 16013KT 9999 SCT037 BKN043 08/04 Q1001
  • 160600Z 17012KT 140V200 9999 SCT037 BKN046 08/05 Q1002
  • 160530Z AUTO 17013KT 9999 BKN045 08/05 Q1002
  • 160500Z AUTO 17014KT 9999 BKN038 08/05 Q1002
  • 160430Z AUTO 17013KT 140V200 9999 FEW043 08/05 Q1002

TAF TAF LEVD
Valide du 16 à 06h jusqu'au 17 à 06h UTC


160500Z 1606/1706 17012KT 9999 BKN040 TX12/1615Z TN02/1706Z
PROB40
TEMPO 1610/1624 18020G30KT
PROB40
TEMPO 1615/1624 3000 RA BKN014



MET'MAP, la Météo Aéronautique d'un coup d'oeil ! - Copyright ORBIFLY Décembre 2007 - Disclaimer

ORBIFLY MET'MAP TEAM :

Programmation & Développement : Alexandra Zaïnal
Sur une idée originale de : Baudouin d'Aumeries
Assistance à la programmation : Marc-Olivier Méhu
Soutien technique & logistique : Manuel Goepfert

Contact : metmap@orbifly.com




SOURCES & CREDITS :

   NOAA